createdAt,value
2023-04-23T00:00:56.346Z,7.20
2023-04-23T00:01:56.522Z,7.10
2023-04-23T00:02:56.752Z,7.20
2023-04-23T00:03:56.948Z,7.00
2023-04-23T00:04:57.058Z,7.40
2023-04-23T00:05:57.263Z,7.30
2023-04-23T00:06:57.431Z,7.20
2023-04-23T00:07:57.566Z,7.10
2023-04-23T00:08:57.818Z,7.40
2023-04-23T00:09:57.979Z,7.20
2023-04-23T00:10:58.144Z,7.20
2023-04-23T00:11:58.306Z,7.50
2023-04-23T00:12:59.337Z,7.30
2023-04-23T00:13:58.651Z,7.40
2023-04-23T00:14:58.782Z,7.00
2023-04-23T00:15:58.997Z,7.00
2023-04-23T00:16:59.146Z,7.20
2023-04-23T00:17:59.396Z,7.20
2023-04-23T00:18:59.495Z,7.00
2023-04-23T00:19:59.628Z,7.50
2023-04-23T00:20:59.799Z,7.40
2023-04-23T00:21:59.958Z,7.20
2023-04-23T00:23:00.088Z,7.00
2023-04-23T00:24:00.389Z,7.80
2023-04-23T00:25:00.596Z,7.20
2023-04-23T00:26:00.736Z,7.40
2023-04-23T00:27:00.910Z,7.40
2023-04-23T00:28:01.062Z,7.30
2023-04-23T00:29:01.193Z,7.30
2023-04-23T00:30:01.354Z,7.20
2023-04-23T00:31:01.516Z,7.60
2023-04-23T00:32:01.717Z,7.30
2023-04-23T00:33:02.075Z,7.40
2023-04-23T00:34:02.019Z,7.30
2023-04-23T00:35:02.143Z,7.20
2023-04-23T00:36:02.424Z,7.50
2023-04-23T00:37:02.578Z,7.80
2023-04-23T00:38:02.721Z,7.50
2023-04-23T00:39:02.877Z,7.20
2023-04-23T00:40:03.046Z,7.40
2023-04-23T00:41:03.185Z,7.30
2023-04-23T00:42:03.367Z,7.10
2023-04-23T00:43:03.510Z,7.10
2023-04-23T00:44:03.780Z,7.10
2023-04-23T00:45:03.925Z,6.70
2023-04-23T00:46:04.173Z,6.90
2023-04-23T00:47:04.320Z,7.50
2023-04-23T00:48:04.465Z,7.20
2023-04-23T00:49:04.622Z,7.10
2023-04-23T00:50:04.771Z,6.90
2023-04-23T00:51:04.922Z,7.40
2023-04-23T00:52:05.085Z,7.10
2023-04-23T00:53:05.233Z,7.00
2023-04-23T00:54:05.382Z,7.40
2023-04-23T00:55:05.534Z,6.50
2023-04-23T00:56:05.667Z,7.00
2023-04-23T00:57:05.829Z,6.90
2023-04-23T00:58:05.976Z,7.50
2023-04-23T00:59:06.121Z,7.30
2023-04-23T01:00:06.256Z,7.50
2023-04-23T01:01:06.436Z,7.00
2023-04-23T01:02:06.801Z,7.10
2023-04-23T01:03:06.940Z,7.50
2023-04-23T01:04:07.285Z,7.40
2023-04-23T01:05:07.255Z,7.70
2023-04-23T01:06:07.517Z,7.00
2023-04-23T01:07:07.687Z,7.00
2023-04-23T01:08:07.850Z,7.00
2023-04-23T01:09:07.986Z,7.30
2023-04-23T01:10:08.137Z,7.80
2023-04-23T01:11:08.289Z,7.10
2023-04-23T01:12:08.445Z,7.30
2023-04-23T01:13:08.592Z,6.80
2023-04-23T01:14:08.824Z,7.30
2023-04-23T01:15:09.114Z,7.60
2023-04-23T01:16:09.208Z,7.40
2023-04-23T01:17:09.494Z,7.50
2023-04-23T01:18:09.559Z,6.90
2023-04-23T01:19:09.684Z,7.20
2023-04-23T01:20:09.963Z,7.40
2023-04-23T01:21:10.114Z,7.30
2023-04-23T01:22:10.264Z,7.40
2023-04-23T01:23:10.426Z,7.70
2023-04-23T01:24:10.560Z,7.50
2023-04-23T01:25:10.698Z,7.40
2023-04-23T01:26:10.873Z,7.50
2023-04-23T01:27:11.015Z,7.70
2023-04-23T01:28:11.135Z,7.70
2023-04-23T01:29:11.301Z,7.60
2023-04-23T01:30:11.448Z,8.00
2023-04-23T01:31:11.711Z,7.60
2023-04-23T01:32:11.858Z,7.50
2023-04-23T01:33:12.003Z,7.80
2023-04-23T01:34:12.148Z,7.80
2023-04-23T01:35:12.303Z,7.80
2023-04-23T01:36:12.465Z,7.80
2023-04-23T01:37:12.689Z,8.10
2023-04-23T01:38:12.813Z,7.50
2023-04-23T01:39:12.961Z,7.90
2023-04-23T01:40:13.100Z,7.60
2023-04-23T01:41:13.364Z,7.50
2023-04-23T01:42:13.530Z,8.00
2023-04-23T01:43:13.673Z,7.80
2023-04-23T01:44:13.840Z,7.60
2023-04-23T01:45:14.013Z,7.90
2023-04-23T01:46:14.137Z,8.00
2023-04-23T01:47:14.406Z,8.00
2023-04-23T01:48:14.550Z,8.20
2023-04-23T01:49:14.813Z,7.80
2023-04-23T01:50:14.951Z,8.30
2023-04-23T01:51:15.130Z,8.20
2023-04-23T01:52:15.306Z,8.40
2023-04-23T01:53:15.445Z,8.20
2023-04-23T01:54:15.579Z,8.20
2023-04-23T01:55:15.848Z,8.50
2023-04-23T01:56:15.988Z,8.30
2023-04-23T01:57:16.266Z,8.50
2023-04-23T01:58:16.401Z,8.10
2023-04-23T01:59:16.551Z,8.50
2023-04-23T02:00:16.716Z,9.30
2023-04-23T02:01:16.866Z,9.80
2023-04-23T02:02:17.045Z,10.30
2023-04-23T02:03:17.312Z,10.60
2023-04-23T02:04:17.564Z,11.30
2023-04-23T02:05:17.609Z,11.60
2023-04-23T02:06:18.745Z,14.10
2023-04-23T02:07:18.054Z,16.20
2023-04-23T02:08:18.210Z,18.10
2023-04-23T02:09:18.363Z,20.90
2023-04-23T02:10:18.519Z,19.60
2023-04-23T02:11:18.680Z,19.90
2023-04-23T02:12:18.828Z,20.30
2023-04-23T02:13:18.981Z,19.90
2023-04-23T02:14:19.108Z,20.80
2023-04-23T02:15:19.407Z,19.70
2023-04-23T02:16:19.598Z,24.60
2023-04-23T02:17:19.721Z,24.80
2023-04-23T02:18:19.866Z,24.00
2023-04-23T02:19:20.120Z,25.40
2023-04-23T02:20:20.278Z,24.10
2023-04-23T02:21:20.472Z,23.70
2023-04-23T02:22:20.714Z,23.90
2023-04-23T02:23:20.898Z,24.70
2023-04-23T02:24:21.028Z,26.50
2023-04-23T02:25:21.314Z,25.90
2023-04-23T02:26:21.463Z,26.10
2023-04-23T02:27:21.721Z,27.00
2023-04-23T02:28:21.916Z,25.40
2023-04-23T02:29:22.047Z,21.50
2023-04-23T02:30:22.196Z,23.60
2023-04-23T02:31:22.479Z,23.40
2023-04-23T02:32:22.694Z,21.40
2023-04-23T02:33:22.831Z,21.20
2023-04-23T02:34:23.053Z,19.20
2023-04-23T02:35:23.365Z,18.90
2023-04-23T02:36:23.469Z,20.90
2023-04-23T02:37:23.748Z,20.80
2023-04-23T02:38:23.876Z,18.90
2023-04-23T02:39:24.162Z,18.60
2023-04-23T02:40:24.299Z,20.30
2023-04-23T02:41:24.586Z,18.30
2023-04-23T02:42:24.736Z,19.10
2023-04-23T02:43:24.928Z,17.20
2023-04-23T02:44:25.064Z,16.90
2023-04-23T02:45:25.332Z,19.00
2023-04-23T02:46:25.564Z,16.40
2023-04-23T02:47:25.738Z,18.30
2023-04-23T02:48:25.869Z,18.90
2023-04-23T02:49:26.153Z,19.20
2023-04-23T02:50:26.284Z,19.00
2023-04-23T02:51:26.434Z,19.20
2023-04-23T02:52:26.601Z,19.60
2023-04-23T02:53:26.857Z,18.90
2023-04-23T02:54:27.019Z,17.90
2023-04-23T02:55:27.180Z,18.10
2023-04-23T02:56:27.329Z,17.60
2023-04-23T02:57:27.559Z,15.70
2023-04-23T02:58:27.709Z,17.10
2023-04-23T02:59:27.904Z,18.30
2023-04-23T03:00:28.121Z,17.60
2023-04-23T03:01:28.385Z,18.80
2023-04-23T03:02:28.654Z,20.40
2023-04-23T03:03:28.944Z,21.40
2023-04-23T03:04:28.932Z,20.70
2023-04-23T03:05:29.207Z,18.80
2023-04-23T03:06:29.427Z,19.30
2023-04-23T03:07:29.680Z,18.20
2023-04-23T03:08:30.051Z,17.30
2023-04-23T03:09:30.067Z,15.50
2023-04-23T03:10:30.223Z,15.20
2023-04-23T03:11:30.389Z,15.10
2023-04-23T03:12:30.536Z,14.30
2023-04-23T03:13:30.740Z,13.50
2023-04-23T03:14:30.910Z,14.50
2023-04-23T03:15:31.073Z,13.40
2023-04-23T03:16:31.284Z,13.30
2023-04-23T03:17:31.449Z,14.40
2023-04-23T03:18:31.588Z,14.40
2023-04-23T03:19:31.747Z,14.50
2023-04-23T03:20:31.928Z,14.10
2023-04-23T03:21:32.131Z,16.40
2023-04-23T03:22:32.284Z,16.40
2023-04-23T03:23:32.465Z,13.60
2023-04-23T03:24:32.626Z,14.80
2023-04-23T03:25:32.791Z,12.30
2023-04-23T03:26:32.974Z,11.60
2023-04-23T03:27:33.130Z,11.80
2023-04-23T03:28:33.285Z,11.30
2023-04-23T03:29:33.436Z,11.50
2023-04-23T03:30:33.687Z,11.00
2023-04-23T03:31:33.764Z,10.60
2023-04-23T03:32:33.977Z,10.80
2023-04-23T03:33:34.145Z,11.00
2023-04-23T03:34:34.302Z,10.20
2023-04-23T03:35:34.472Z,11.40
2023-04-23T03:36:34.627Z,10.30
2023-04-23T03:37:34.819Z,10.10
2023-04-23T03:38:34.946Z,10.00
2023-04-23T03:39:35.203Z,10.40
2023-04-23T03:40:35.372Z,10.70
2023-04-23T03:41:35.519Z,11.00
2023-04-23T03:42:35.698Z,10.80
2023-04-23T03:43:35.875Z,10.40
2023-04-23T03:44:36.044Z,10.40
2023-04-23T03:45:36.203Z,10.30
2023-04-23T03:46:36.420Z,10.40
2023-04-23T03:47:36.602Z,10.80
2023-04-23T03:48:36.726Z,10.40
2023-04-23T03:49:36.878Z,10.30
2023-04-23T03:50:37.036Z,10.70
2023-04-23T03:51:37.198Z,10.60
2023-04-23T03:52:37.368Z,10.40
2023-04-23T03:53:37.529Z,10.50
2023-04-23T03:54:37.737Z,10.70
2023-04-23T03:55:37.879Z,11.80
2023-04-23T03:56:38.030Z,11.30
2023-04-23T03:57:38.316Z,11.30
2023-04-23T03:58:38.504Z,10.40
2023-04-23T03:59:38.648Z,10.90
2023-04-23T04:00:38.805Z,10.30
2023-04-23T04:01:39.071Z,10.40
2023-04-23T04:02:39.304Z,11.10
2023-04-23T04:03:39.695Z,10.00
2023-04-23T04:04:39.863Z,9.80
2023-04-23T04:05:39.854Z,10.70
2023-04-23T04:06:39.989Z,12.40
2023-04-23T04:07:40.173Z,13.30
2023-04-23T04:08:40.344Z,15.00
2023-04-23T04:09:40.509Z,16.30
2023-04-23T04:10:40.647Z,19.70
2023-04-23T04:11:40.906Z,22.20
2023-04-23T04:12:41.060Z,19.50
2023-04-23T04:13:41.247Z,18.80
2023-04-23T04:14:41.623Z,18.60
2023-04-23T04:15:41.609Z,17.10
2023-04-23T04:16:41.764Z,18.80
2023-04-23T04:17:42.012Z,17.90
2023-04-23T04:18:42.120Z,18.50
2023-04-23T04:19:42.266Z,17.90
2023-04-23T04:20:42.434Z,15.40
2023-04-23T04:21:42.626Z,15.80
2023-04-23T04:22:42.799Z,14.70
2023-04-23T04:23:42.965Z,14.60
2023-04-23T04:24:43.483Z,14.10
2023-04-23T04:25:43.405Z,14.20
2023-04-23T04:26:43.573Z,13.70
2023-04-23T04:27:43.772Z,14.50
2023-04-23T04:28:44.132Z,13.70
2023-04-23T04:29:44.097Z,14.00
2023-04-23T04:30:44.269Z,12.70
2023-04-23T04:31:44.481Z,13.00
2023-04-23T04:32:44.660Z,14.40
2023-04-23T04:33:44.819Z,13.30
2023-04-23T04:34:45.003Z,12.80
2023-04-23T04:35:45.384Z,12.10
2023-04-23T04:36:45.474Z,12.10
2023-04-23T04:37:45.652Z,12.10
2023-04-23T04:38:45.811Z,12.70
2023-04-23T04:39:45.967Z,12.50
2023-04-23T04:40:46.111Z,13.10
2023-04-23T04:41:46.411Z,12.60
2023-04-23T04:42:46.546Z,11.80
2023-04-23T04:43:46.702Z,11.70
2023-04-23T04:44:46.843Z,11.60
2023-04-23T04:45:47.012Z,11.40
2023-04-23T04:46:47.250Z,11.40
2023-04-23T04:47:47.402Z,11.90
2023-04-23T04:48:47.506Z,11.50
2023-04-23T04:49:47.660Z,11.00
2023-04-23T04:50:47.819Z,11.70
2023-04-23T04:51:47.966Z,12.10
2023-04-23T04:52:48.120Z,12.90
2023-04-23T04:53:48.273Z,11.90
2023-04-23T04:54:48.404Z,10.50
2023-04-23T04:55:48.671Z,11.40
2023-04-23T04:56:48.827Z,12.20
2023-04-23T04:57:48.985Z,11.60
2023-04-23T04:58:49.136Z,10.60
2023-04-23T04:59:49.450Z,11.50
2023-04-23T05:00:50.207Z,10.90
2023-04-23T05:01:49.771Z,10.80
2023-04-23T05:02:50.054Z,11.30
2023-04-23T05:03:50.236Z,11.10
2023-04-23T05:04:50.263Z,10.80
2023-04-23T05:05:57.477Z,11.40
2023-04-23T05:06:50.605Z,11.00
2023-04-23T05:07:50.773Z,10.00
2023-04-23T05:08:51.710Z,9.80
2023-04-23T05:09:51.181Z,9.70
2023-04-23T05:10:51.332Z,9.30
2023-04-23T05:11:51.471Z,9.20
2023-04-23T05:12:51.642Z,9.50
2023-04-23T05:13:51.793Z,9.20
2023-04-23T05:14:53.043Z,9.80
2023-04-23T05:15:52.101Z,9.80
2023-04-23T05:16:52.380Z,8.80
2023-04-23T05:17:52.595Z,9.10
2023-04-23T05:18:52.738Z,8.50
2023-04-23T05:19:52.924Z,8.50
2023-04-23T05:20:53.056Z,8.10
2023-04-23T05:21:53.298Z,8.20
2023-04-23T05:22:53.481Z,8.70
2023-04-23T05:23:53.630Z,9.20
2023-04-23T05:24:53.766Z,9.60
2023-04-23T05:25:54.519Z,9.10
2023-04-23T05:26:54.185Z,8.70
2023-04-23T05:27:54.375Z,8.40
2023-04-23T05:28:54.548Z,8.90
2023-04-23T05:29:54.711Z,8.50
2023-04-23T05:30:54.871Z,8.80
2023-04-23T05:31:55.060Z,9.30
2023-04-23T05:32:55.245Z,9.80
2023-04-23T05:33:55.499Z,9.90
2023-04-23T05:34:55.664Z,10.10
2023-04-23T05:35:56.813Z,10.90
2023-04-23T05:36:56.024Z,10.10
2023-04-23T05:37:56.212Z,10.50
2023-04-23T05:38:56.401Z,9.30
2023-04-23T05:39:56.536Z,9.90
2023-04-23T05:40:56.675Z,10.40
2023-04-23T05:41:56.817Z,10.90
2023-04-23T05:42:57.132Z,10.80
2023-04-23T05:43:57.292Z,11.40
2023-04-23T05:44:57.625Z,11.20
2023-04-23T05:45:57.764Z,12.10
2023-04-23T05:46:57.895Z,10.90
2023-04-23T05:47:58.214Z,11.10
2023-04-23T05:48:58.483Z,10.60
2023-04-23T05:49:58.451Z,10.30
2023-04-23T05:50:58.756Z,10.90
2023-04-23T05:51:58.761Z,10.80
2023-04-23T05:52:59.049Z,10.60
2023-04-23T05:53:59.227Z,10.30
2023-04-23T05:54:59.362Z,9.90
2023-04-23T05:55:59.548Z,9.70
2023-04-23T05:56:59.688Z,9.80
2023-04-23T05:57:59.897Z,9.50
2023-04-23T05:59:00.038Z,9.60
2023-04-23T06:00:00.189Z,9.10
2023-04-23T06:01:00.406Z,9.10
2023-04-23T06:02:00.569Z,9.70
2023-04-23T06:03:00.891Z,9.50
2023-04-23T06:04:01.121Z,9.50
2023-04-23T06:05:01.393Z,9.00
2023-04-23T06:06:01.323Z,9.00
2023-04-23T06:07:01.470Z,9.20
2023-04-23T06:08:01.651Z,8.60
2023-04-23T06:09:01.807Z,9.10
2023-04-23T06:10:01.951Z,8.80
2023-04-23T06:11:02.137Z,9.60
2023-04-23T06:12:02.279Z,8.80
2023-04-23T06:13:02.436Z,8.60
2023-04-23T06:14:02.617Z,8.40
2023-04-23T06:15:02.788Z,8.60
2023-04-23T06:16:03.007Z,8.80
2023-04-23T06:17:03.162Z,8.20
2023-04-23T06:18:03.451Z,8.80
2023-04-23T06:19:03.758Z,8.50
2023-04-23T06:20:03.802Z,8.20
2023-04-23T06:21:03.968Z,8.00
2023-04-23T06:22:04.128Z,8.40
2023-04-23T06:23:04.265Z,8.10
2023-04-23T06:24:04.381Z,7.90
2023-04-23T06:25:04.599Z,8.40
2023-04-23T06:26:04.696Z,8.10
2023-04-23T06:27:04.864Z,8.00
2023-04-23T06:28:05.010Z,8.00
2023-04-23T06:29:05.135Z,7.80
2023-04-23T06:30:05.515Z,8.30
2023-04-23T06:31:05.457Z,7.80
2023-04-23T06:32:05.591Z,7.20
2023-04-23T06:33:05.904Z,7.60
2023-04-23T06:34:05.914Z,7.50
2023-04-23T06:35:06.315Z,7.30
2023-04-23T06:36:06.270Z,6.70
2023-04-23T06:37:06.427Z,7.50
2023-04-23T06:38:06.581Z,7.10
2023-04-23T06:39:06.739Z,6.80
2023-04-23T06:40:06.996Z,7.00
2023-04-23T06:41:07.071Z,7.30
2023-04-23T06:42:07.197Z,7.20
2023-04-23T06:43:07.364Z,7.40
2023-04-23T06:44:07.501Z,7.50
2023-04-23T06:45:07.679Z,7.60
2023-04-23T06:46:07.877Z,7.60
2023-04-23T06:47:08.136Z,7.40
2023-04-23T06:48:08.302Z,7.60
2023-04-23T06:49:08.415Z,7.70
2023-04-23T06:50:08.646Z,8.10
2023-04-23T06:51:08.749Z,7.60
2023-04-23T06:52:08.884Z,7.70
2023-04-23T06:53:09.050Z,7.60
2023-04-23T06:54:09.206Z,7.50
2023-04-23T06:55:09.330Z,7.70
2023-04-23T06:56:09.447Z,7.00
2023-04-23T06:57:09.621Z,7.40
2023-04-23T06:58:09.785Z,7.50
2023-04-23T06:59:09.945Z,7.70
2023-04-23T07:00:10.080Z,8.00
2023-04-23T07:01:10.237Z,8.40
2023-04-23T07:02:10.402Z,8.40
2023-04-23T07:03:10.658Z,8.70
2023-04-23T07:04:10.807Z,8.60
2023-04-23T07:05:10.951Z,9.50
2023-04-23T07:06:11.094Z,9.30
2023-04-23T07:07:11.250Z,9.70
2023-04-23T07:08:11.411Z,10.40
2023-04-23T07:09:11.575Z,10.90
2023-04-23T07:10:11.718Z,14.30
2023-04-23T07:11:12.003Z,17.20
2023-04-23T07:12:12.187Z,17.70
2023-04-23T07:13:14.022Z,21.10
2023-04-23T07:14:12.956Z,21.30
2023-04-23T07:15:12.803Z,18.50
2023-04-23T07:16:12.950Z,22.50
2023-04-23T07:17:13.168Z,24.00
2023-04-23T07:18:13.328Z,26.20
2023-04-23T07:19:13.497Z,24.70
2023-04-23T07:20:13.683Z,27.30
2023-04-23T07:21:13.862Z,28.80
2023-04-23T07:22:14.115Z,29.90
2023-04-23T07:23:14.385Z,30.40
2023-04-23T07:24:14.516Z,29.60
2023-04-23T07:25:14.681Z,31.90
2023-04-23T07:26:14.832Z,33.80
2023-04-23T07:27:15.135Z,34.90
2023-04-23T07:28:15.322Z,34.50
2023-04-23T07:29:15.492Z,33.50
2023-04-23T07:30:15.682Z,31.80
2023-04-23T07:31:15.841Z,33.60
2023-04-23T07:32:15.997Z,33.50
2023-04-23T07:33:16.772Z,34.20
2023-04-23T07:34:16.349Z,37.20
2023-04-23T07:35:16.872Z,33.70
2023-04-23T07:36:16.832Z,34.00
2023-04-23T07:37:17.004Z,33.90
2023-04-23T07:38:17.181Z,35.90
2023-04-23T07:39:17.350Z,35.90
2023-04-23T07:40:17.483Z,39.20
2023-04-23T07:41:17.861Z,37.70
2023-04-23T07:42:17.908Z,36.40
2023-04-23T07:43:18.105Z,35.50
2023-04-23T07:44:18.257Z,38.50
2023-04-23T07:45:18.410Z,37.50
2023-04-23T07:46:18.570Z,36.10
2023-04-23T07:47:18.741Z,37.70
2023-04-23T07:48:18.902Z,36.60
2023-04-23T07:49:19.072Z,36.90
2023-04-23T07:50:19.282Z,37.50
2023-04-23T07:51:19.458Z,38.60
2023-04-23T07:52:19.631Z,40.30
2023-04-23T07:53:19.865Z,38.70
2023-04-23T07:54:20.035Z,40.70
2023-04-23T07:55:20.205Z,40.20
2023-04-23T07:56:20.372Z,42.20
2023-04-23T07:57:20.523Z,44.30
2023-04-23T07:58:20.682Z,43.80
2023-04-23T07:59:20.858Z,41.10
2023-04-23T08:00:21.033Z,38.30
2023-04-23T08:01:21.178Z,37.70
2023-04-23T08:02:21.395Z,39.50
2023-04-23T08:03:21.763Z,40.10
2023-04-23T08:04:22.198Z,41.50
2023-04-23T08:05:21.980Z,40.70
2023-04-23T08:06:22.267Z,43.40
2023-04-23T08:07:22.339Z,43.80
2023-04-23T08:08:22.570Z,43.50
2023-04-23T08:09:22.722Z,41.50
2023-04-23T08:10:22.893Z,39.30
2023-04-23T08:11:23.060Z,41.40
2023-04-23T08:12:23.223Z,40.50
2023-04-23T08:13:23.419Z,39.00
2023-04-23T08:14:23.560Z,38.70
2023-04-23T08:15:23.884Z,42.00
2023-04-23T08:16:24.174Z,40.90
2023-04-23T08:17:24.166Z,36.10
2023-04-23T08:18:24.316Z,40.00
2023-04-23T08:19:24.463Z,41.40
2023-04-23T08:20:24.620Z,36.60
2023-04-23T08:21:24.958Z,37.30
2023-04-23T08:22:25.018Z,38.20
2023-04-23T08:23:25.161Z,37.60
2023-04-23T08:24:25.300Z,36.50
2023-04-23T08:25:25.546Z,34.90
2023-04-23T08:26:25.672Z,30.40
2023-04-23T08:27:25.854Z,35.40
2023-04-23T08:28:25.990Z,33.60
2023-04-23T08:29:26.171Z,31.40
2023-04-23T08:30:26.336Z,31.80
2023-04-23T08:31:27.447Z,32.10
2023-04-23T08:32:26.675Z,30.90
2023-04-23T08:33:26.800Z,29.50
2023-04-23T08:34:26.970Z,30.60
2023-04-23T08:35:27.116Z,26.50
2023-04-23T08:36:27.267Z,26.40
2023-04-23T08:37:31.338Z,26.20
2023-04-23T08:38:27.643Z,26.00
2023-04-23T08:39:27.792Z,27.10
2023-04-23T08:40:27.936Z,27.20
2023-04-23T08:41:28.103Z,24.10
2023-04-23T08:42:28.272Z,25.20
2023-04-23T08:43:28.428Z,22.80
2023-04-23T08:44:28.577Z,22.20
2023-04-23T08:45:28.772Z,21.20
2023-04-23T08:46:28.965Z,22.10
2023-04-23T08:47:29.113Z,20.20
2023-04-23T08:48:29.273Z,21.10
2023-04-23T08:49:29.432Z,21.10
2023-04-23T08:50:29.573Z,20.90
2023-04-23T08:51:29.734Z,19.60
2023-04-23T08:52:29.859Z,19.30
2023-04-23T08:53:30.021Z,19.50
2023-04-23T08:54:30.171Z,20.10
2023-04-23T08:55:30.328Z,20.50
2023-04-23T08:56:30.464Z,20.00
2023-04-23T08:57:30.609Z,19.50
2023-04-23T08:58:30.767Z,19.00
2023-04-23T08:59:30.928Z,19.40
2023-04-23T09:00:31.147Z,20.30
2023-04-23T09:01:31.304Z,20.30
2023-04-23T09:02:31.541Z,20.70
2023-04-23T09:03:31.795Z,20.70
2023-04-23T09:04:31.865Z,21.00
2023-04-23T09:05:32.028Z,21.10
2023-04-23T09:06:33.136Z,21.80
2023-04-23T09:07:32.409Z,21.40
2023-04-23T09:08:32.575Z,21.40
2023-04-23T09:09:32.732Z,22.80
2023-04-23T09:10:32.918Z,22.70
2023-04-23T09:11:33.088Z,23.20
2023-04-23T09:12:33.230Z,24.40
2023-04-23T09:13:33.523Z,22.50
2023-04-23T09:14:34.263Z,20.50
2023-04-23T09:15:33.851Z,21.00
2023-04-23T09:16:34.029Z,21.50
2023-04-23T09:17:34.177Z,19.50
2023-04-23T09:18:34.292Z,19.80
2023-04-23T09:19:34.459Z,20.30
2023-04-23T09:20:34.611Z,20.70
2023-04-23T09:21:35.848Z,20.70
2023-04-23T09:22:35.113Z,20.10
2023-04-23T09:23:35.297Z,20.60
2023-04-23T09:24:35.434Z,19.70
2023-04-23T09:25:35.699Z,18.50
2023-04-23T09:26:35.849Z,19.30
2023-04-23T09:27:36.060Z,17.00
2023-04-23T09:28:36.208Z,14.40
2023-04-23T09:29:36.367Z,13.70
2023-04-23T09:30:36.512Z,12.80
2023-04-23T09:31:36.776Z,12.10
2023-04-23T09:32:36.957Z,12.80
2023-04-23T09:33:37.154Z,11.50
2023-04-23T09:34:37.309Z,11.10
2023-04-23T09:35:39.085Z,11.50
2023-04-23T09:36:37.659Z,11.60
2023-04-23T09:37:37.825Z,11.80
2023-04-23T09:38:38.045Z,11.00
2023-04-23T09:39:38.269Z,10.40
2023-04-23T09:40:38.398Z,10.70
2023-04-23T09:41:40.411Z,11.80
2023-04-23T09:42:38.737Z,12.20
2023-04-23T09:43:38.920Z,12.10
2023-04-23T09:44:39.266Z,10.70
2023-04-23T09:45:39.347Z,9.10
2023-04-23T09:46:39.488Z,9.50
2023-04-23T09:47:39.662Z,9.60
2023-04-23T09:48:39.804Z,7.90
2023-04-23T09:49:40.149Z,7.20
2023-04-23T09:50:40.258Z,7.30
2023-04-23T09:51:40.380Z,7.50
2023-04-23T09:52:40.554Z,7.00
2023-04-23T09:53:41.684Z,7.70
2023-04-23T09:54:41.881Z,6.70
2023-04-23T09:55:41.139Z,7.40
2023-04-23T09:56:41.314Z,7.10
2023-04-23T09:57:41.445Z,7.40
2023-04-23T09:58:41.636Z,6.90
2023-04-23T09:59:49.801Z,7.20
2023-04-23T10:00:43.062Z,7.90
2023-04-23T10:01:42.340Z,8.00
2023-04-23T10:02:42.433Z,8.80
2023-04-23T10:03:42.782Z,9.10
2023-04-23T10:04:43.047Z,9.20
2023-04-23T10:06:50.203Z,9.70
2023-04-23T10:07:44.421Z,10.60
2023-04-23T10:08:43.592Z,10.30
2023-04-23T10:09:44.218Z,11.60
2023-04-23T10:10:57.592Z,11.70
2023-04-23T10:11:45.118Z,13.50
2023-04-23T10:12:54.359Z,13.20
2023-04-23T10:13:45.472Z,14.20
2023-04-23T10:14:44.661Z,14.40
2023-04-23T10:15:44.829Z,15.70
2023-04-23T10:16:49.093Z,16.50
2023-04-23T10:17:45.176Z,16.80
2023-04-23T10:18:45.417Z,15.90
2023-04-23T10:19:45.741Z,17.40
2023-04-23T10:20:45.632Z,18.70
2023-04-23T10:21:52.697Z,19.80
2023-04-23T10:22:47.103Z,20.70
2023-04-23T10:23:46.251Z,21.20
2023-04-23T10:24:48.745Z,21.00
2023-04-23T10:25:46.573Z,21.20
2023-04-23T10:26:46.864Z,23.60
2023-04-23T10:27:53.710Z,23.90
2023-04-23T10:28:48.248Z,25.90
2023-04-23T10:29:47.394Z,27.70
2023-04-23T10:30:47.698Z,28.90
2023-04-23T10:31:47.876Z,28.00
2023-04-23T10:32:48.045Z,29.20
2023-04-23T10:33:58.344Z,29.70
2023-04-23T10:34:49.360Z,30.00
2023-04-23T10:35:48.807Z,29.10
2023-04-23T10:36:48.697Z,28.60
2023-04-23T10:37:48.858Z,29.30
2023-04-23T10:38:57.383Z,29.30
2023-04-23T10:39:50.416Z,28.20
2023-04-23T10:40:49.396Z,30.50
2023-04-23T10:41:49.519Z,26.90
2023-04-23T10:42:49.880Z,25.50
2023-04-23T10:43:49.995Z,24.70
2023-04-23T10:44:59.377Z,23.90
2023-04-23T10:45:51.316Z,26.50
2023-04-23T10:46:50.531Z,24.90
2023-04-23T10:47:50.767Z,23.60
2023-04-23T10:48:50.766Z,21.90
2023-04-23T10:49:51.099Z,22.70
2023-04-23T10:51:08.122Z,22.30
2023-04-23T10:52:51.457Z,16.00
2023-04-23T10:53:51.534Z,16.90
2023-04-23T10:54:51.692Z,17.00
2023-04-23T10:55:51.833Z,17.10
2023-04-23T10:56:51.952Z,17.40
2023-04-23T10:57:52.065Z,17.20
2023-04-23T10:58:52.201Z,16.20
2023-04-23T10:59:52.320Z,15.90
2023-04-23T11:00:52.458Z,16.40
2023-04-23T11:01:52.764Z,15.90
2023-04-23T11:02:52.901Z,15.70
2023-04-23T11:03:53.123Z,15.80
2023-04-23T11:04:53.319Z,16.90
2023-04-23T11:06:01.065Z,15.90
2023-04-23T11:06:53.489Z,15.70
2023-04-23T11:07:53.628Z,15.70
2023-04-23T11:08:53.857Z,15.70
2023-04-23T11:09:53.858Z,14.90
2023-04-23T11:10:54.105Z,14.80
2023-04-23T11:11:54.220Z,14.70
2023-04-23T11:12:54.355Z,15.30
2023-04-23T11:13:54.514Z,15.50
2023-04-23T11:14:54.663Z,15.40
2023-04-23T11:15:54.789Z,15.40
2023-04-23T11:16:55.065Z,15.20
2023-04-23T11:17:55.165Z,15.20
2023-04-23T11:18:55.274Z,13.60
2023-04-23T11:19:55.404Z,14.10
2023-04-23T11:20:55.524Z,14.00
2023-04-23T11:21:55.654Z,13.70
2023-04-23T11:22:55.907Z,13.40
2023-04-23T11:23:56.041Z,13.40
2023-04-23T11:24:56.176Z,13.80
2023-04-23T11:25:56.312Z,14.10
2023-04-23T11:26:56.474Z,14.10
2023-04-23T11:27:56.590Z,15.10
2023-04-23T11:28:56.720Z,13.30
2023-04-23T11:29:58.251Z,13.70
2023-04-23T11:30:56.993Z,13.70
2023-04-23T11:32:57.384Z,12.80
2023-04-23T11:33:57.379Z,13.00
2023-04-23T11:34:57.549Z,13.30
2023-04-23T11:35:57.689Z,13.00
2023-04-23T11:36:57.832Z,13.10
2023-04-23T11:37:57.966Z,12.70
2023-04-23T11:38:58.120Z,12.20
2023-04-23T11:39:58.256Z,12.90
2023-04-23T11:40:58.409Z,11.20
2023-04-23T11:41:58.534Z,12.10
2023-04-23T11:42:58.667Z,11.80
2023-04-23T11:43:58.797Z,11.90
2023-04-23T11:44:58.986Z,11.50
2023-04-23T11:45:59.110Z,11.70
2023-04-23T11:46:59.230Z,11.20
2023-04-23T11:47:59.502Z,9.40
2023-04-23T11:48:59.460Z,8.80
2023-04-23T11:49:59.624Z,9.50
2023-04-23T11:50:59.741Z,9.00
2023-04-23T11:51:59.901Z,9.90
2023-04-23T11:53:00.030Z,9.10
2023-04-23T11:54:00.154Z,8.90
2023-04-23T11:55:00.254Z,8.90
2023-04-23T11:56:00.351Z,8.80
2023-04-23T11:57:00.416Z,8.00
2023-04-23T11:58:00.528Z,8.00
2023-04-23T11:59:00.570Z,7.20
2023-04-23T12:00:00.654Z,6.80
2023-04-23T12:01:00.867Z,5.90
2023-04-23T12:02:00.877Z,7.40
2023-04-23T12:03:01.246Z,8.00
2023-04-23T12:04:01.245Z,6.90
2023-04-23T12:05:01.148Z,5.00
2023-04-23T12:06:01.207Z,5.10
2023-04-23T12:07:02.030Z,4.20
2023-04-23T12:08:01.387Z,4.40
2023-04-23T12:09:01.494Z,3.90
2023-04-23T12:10:01.576Z,3.70
2023-04-23T12:11:01.638Z,3.60
2023-04-23T12:12:01.696Z,3.80
2023-04-23T12:13:01.760Z,3.20
2023-04-23T12:14:01.823Z,3.00
2023-04-23T12:15:01.952Z,3.10
2023-04-23T12:16:02.184Z,2.40
2023-04-23T12:17:02.127Z,2.60
2023-04-23T12:18:02.220Z,2.30
2023-04-23T12:19:02.284Z,2.10
2023-04-23T12:20:02.380Z,2.00
2023-04-23T12:21:02.469Z,1.80
2023-04-23T12:22:02.544Z,1.60
2023-04-23T12:23:02.617Z,1.50
2023-04-23T12:24:02.711Z,1.50
2023-04-23T12:25:02.837Z,1.50
2023-04-23T12:26:02.986Z,1.50
2023-04-23T12:27:03.210Z,1.40
2023-04-23T12:28:03.193Z,1.40
2023-04-23T12:29:03.282Z,1.30
2023-04-23T12:30:06.381Z,5.60
2023-04-23T12:31:03.585Z,3.80
2023-04-23T12:32:03.644Z,2.70
2023-04-23T12:33:03.734Z,1.70
2023-04-23T12:34:03.829Z,1.60
2023-04-23T12:35:03.947Z,1.50
2023-04-23T12:36:03.996Z,2.50
2023-04-23T12:37:04.136Z,2.10
2023-04-23T12:38:04.218Z,1.40
2023-04-23T12:39:04.299Z,1.50
2023-04-23T12:40:04.399Z,1.50
2023-04-23T12:41:04.476Z,1.30
2023-04-23T12:42:04.552Z,1.40
2023-04-23T12:43:04.677Z,1.70
2023-04-23T12:44:04.702Z,1.60
2023-04-23T12:45:04.886Z,1.60
2023-04-23T12:46:04.952Z,1.60
2023-04-23T12:47:05.122Z,1.60
2023-04-23T12:48:05.091Z,1.70
2023-04-23T12:49:05.130Z,1.60
2023-04-23T12:50:05.208Z,1.40
2023-04-23T12:51:05.275Z,1.30
2023-04-23T12:52:05.341Z,1.90
2023-04-23T12:53:05.388Z,1.50
2023-04-23T12:54:05.459Z,1.50
2023-04-23T12:55:05.535Z,1.50
2023-04-23T12:56:05.561Z,1.30
2023-04-23T12:57:05.604Z,1.40
2023-04-23T12:58:05.728Z,1.60
2023-04-23T12:59:05.786Z,1.50
2023-04-23T13:00:05.830Z,1.50
2023-04-23T13:01:05.912Z,1.40
2023-04-23T13:02:06.089Z,1.30
2023-04-23T13:03:06.060Z,1.40
2023-04-23T13:04:06.116Z,1.60
2023-04-23T13:05:06.206Z,1.50
2023-04-23T13:06:06.255Z,1.20
2023-04-23T13:07:06.350Z,1.30
2023-04-23T13:08:06.375Z,1.60
2023-04-23T13:09:06.425Z,1.50